createdAt,value
2018-11-12T00:03:46.120Z,37.40
2018-11-12T00:08:26.094Z,27.13
2018-11-12T00:13:05.991Z,25.30
2018-11-12T00:17:45.922Z,19.70
2018-11-12T00:22:25.583Z,20.48
2018-11-12T00:27:05.479Z,13.53
2018-11-12T00:31:45.257Z,24.18
2018-11-12T00:36:25.168Z,90.00
2018-11-12T00:41:05.049Z,26.33
2018-11-12T00:45:45.137Z,19.00
2018-11-12T00:50:25.081Z,30.60
2018-11-12T00:55:05.512Z,22.75
2018-11-12T00:59:46.477Z,9.98
2018-11-12T01:04:26.798Z,8.20
2018-11-12T01:09:09.150Z,14.45
2018-11-12T01:13:48.748Z,11.12
2018-11-12T01:18:29.216Z,11.95
2018-11-12T01:23:09.177Z,9.35
2018-11-12T01:27:49.105Z,13.30
2018-11-12T01:32:29.143Z,14.50
2018-11-12T01:37:09.424Z,10.03
2018-11-12T01:41:51.061Z,9.53
2018-11-12T01:46:31.017Z,9.88
2018-11-12T01:51:11.106Z,11.60
2018-11-12T01:55:51.101Z,11.55
2018-11-12T02:00:31.073Z,10.55
2018-11-12T02:05:11.391Z,9.00
2018-11-12T02:09:51.633Z,21.77
2018-11-12T02:14:31.344Z,21.33
2018-11-12T02:19:11.473Z,13.43
2018-11-12T02:23:52.461Z,14.58
2018-11-12T02:28:32.921Z,16.32
2018-11-12T02:33:14.107Z,14.47
2018-11-12T02:37:53.845Z,16.77
2018-11-12T02:42:33.720Z,25.40
2018-11-12T02:47:13.617Z,27.37
2018-11-12T02:51:53.861Z,14.35
2018-11-12T02:56:34.910Z,11.55
2018-11-12T03:01:19.597Z,23.75
2018-11-12T03:05:59.408Z,12.93
2018-11-12T03:10:39.126Z,15.68
2018-11-12T03:15:19.885Z,10.93
2018-11-12T03:20:01.051Z,7.05
2018-11-12T03:24:41.636Z,6.90
2018-11-12T03:29:22.385Z,5.33
2018-11-12T03:34:03.185Z,4.37
2018-11-12T03:38:44.396Z,5.85
2018-11-12T03:43:25.581Z,5.47
2018-11-12T03:48:05.768Z,9.28
2018-11-12T03:52:46.149Z,4.70
2018-11-12T03:57:27.995Z,7.10
2018-11-12T04:02:08.240Z,4.47
2018-11-12T04:06:49.160Z,4.95
2018-11-12T04:11:29.705Z,3.55
2018-11-12T04:16:10.505Z,4.62
2018-11-12T04:20:50.427Z,3.30
2018-11-12T04:25:30.740Z,6.62
2018-11-12T04:30:13.676Z,5.85
2018-11-12T04:34:53.761Z,6.42
2018-11-12T04:39:34.406Z,2.67
2018-11-12T04:44:14.426Z,7.25
2018-11-12T04:48:54.412Z,2.98
2018-11-12T04:53:34.584Z,3.83
2018-11-12T04:58:15.598Z,5.10
2018-11-12T05:02:56.514Z,4.28
2018-11-12T05:07:36.521Z,2.72
2018-11-12T05:12:17.044Z,3.17
2018-11-12T05:16:57.000Z,4.92
2018-11-12T05:21:37.431Z,3.30
2018-11-12T05:26:18.197Z,2.45
2018-11-12T05:30:58.072Z,3.95
2018-11-12T05:35:38.182Z,3.70
2018-11-12T05:40:20.820Z,4.00
2018-11-12T05:45:01.732Z,3.65
2018-11-12T05:49:41.921Z,4.75
2018-11-12T05:54:22.129Z,4.55
2018-11-12T05:59:08.937Z,5.33
2018-11-12T06:03:49.636Z,4.95
2018-11-12T06:08:32.160Z,4.15
2018-11-12T06:13:12.109Z,2.62
2018-11-12T06:17:54.991Z,4.03
2018-11-12T06:22:35.178Z,3.58
2018-11-12T06:27:15.568Z,4.85
2018-11-12T06:31:57.664Z,2.60
2018-11-12T06:36:37.816Z,2.92
2018-11-12T06:41:19.578Z,2.77
2018-11-12T06:45:59.667Z,2.95
2018-11-12T06:50:40.144Z,8.30
2018-11-12T06:55:21.649Z,4.75
2018-11-12T07:00:02.998Z,3.47
2018-11-12T07:04:43.864Z,6.03
2018-11-12T07:09:23.808Z,2.60
2018-11-12T07:14:04.545Z,2.42
2018-11-12T07:18:45.464Z,2.83
2018-11-12T07:23:25.716Z,2.50
2018-11-12T07:28:05.802Z,3.35
2018-11-12T07:32:46.591Z,2.90
2018-11-12T07:37:26.337Z,3.72
2018-11-12T07:42:07.950Z,5.33
2018-11-12T07:46:47.984Z,5.78
2018-11-12T07:51:27.846Z,15.95
2018-11-12T07:56:07.870Z,8.08
2018-11-12T08:00:50.040Z,5.42
2018-11-12T08:05:30.925Z,2.47
2018-11-12T08:10:14.715Z,3.87
2018-11-12T08:14:55.697Z,2.75
2018-11-12T08:19:36.697Z,5.10
2018-11-12T08:24:18.087Z,4.65
2018-11-12T08:28:59.117Z,3.95
2018-11-12T08:33:38.841Z,3.65
2018-11-12T08:38:18.893Z,3.60
2018-11-12T08:42:59.603Z,4.60
2018-11-12T08:47:40.288Z,1.95
2018-11-12T08:52:20.591Z,2.75
2018-11-12T08:57:01.750Z,4.22
2018-11-12T09:01:41.722Z,2.58
2018-11-12T09:06:24.262Z,3.55
2018-11-12T09:11:04.137Z,2.60
2018-11-12T09:15:44.086Z,2.72
2018-11-12T09:20:25.362Z,2.30
2018-11-12T09:25:11.823Z,1.98
2018-11-12T09:29:53.389Z,2.85
2018-11-12T09:34:33.461Z,2.30
2018-11-12T09:39:15.277Z,3.10
2018-11-12T09:43:56.896Z,5.55
2018-11-12T09:48:37.548Z,2.35
2018-11-12T09:53:19.201Z,3.15
2018-11-12T09:58:04.165Z,2.10
2018-11-12T10:02:47.170Z,1.82
2018-11-12T10:07:28.675Z,4.72
2018-11-12T10:12:10.384Z,2.42
2018-11-12T10:16:52.238Z,1.87
2018-11-12T10:21:29.285Z,3.08
2018-11-12T10:26:10.108Z,2.55
2018-11-12T10:30:51.697Z,4.47
2018-11-12T10:35:31.593Z,4.17
2018-11-12T10:40:14.629Z,4.78
2018-11-12T10:44:54.728Z,2.08
2018-11-12T10:49:34.555Z,4.15
2018-11-12T10:54:15.622Z,2.67
2018-11-12T10:58:55.524Z,4.40
2018-11-12T11:03:40.614Z,2.12
2018-11-12T11:08:22.081Z,3.67
2018-11-12T11:13:03.185Z,4.00
2018-11-12T11:17:43.143Z,1.82
2018-11-12T11:22:23.570Z,3.72
2018-11-12T11:27:05.503Z,3.12
2018-11-12T11:31:48.664Z,3.45
2018-11-12T11:36:30.572Z,2.00
2018-11-12T11:41:12.024Z,1.75
2018-11-12T11:45:52.960Z,4.65
2018-11-12T11:50:35.290Z,2.87
2018-11-12T11:55:18.070Z,2.37
2018-11-12T11:59:59.884Z,4.75
2018-11-12T12:04:40.384Z,2.50
2018-11-12T12:09:22.979Z,3.30
2018-11-12T12:14:04.367Z,3.08
2018-11-12T12:18:45.117Z,3.25
2018-11-12T12:23:26.644Z,5.80
2018-11-12T12:28:07.209Z,3.22
2018-11-12T12:32:48.711Z,4.03
2018-11-12T12:37:28.493Z,3.10
2018-11-12T12:42:08.312Z,4.10
2018-11-12T12:46:48.444Z,3.80
2018-11-12T12:51:29.184Z,3.75
2018-11-12T12:56:09.404Z,4.70
2018-11-12T13:00:50.598Z,4.35
2018-11-12T13:05:31.424Z,2.90
2018-11-12T13:10:13.561Z,3.80
2018-11-12T13:14:54.112Z,3.20
2018-11-12T13:19:35.137Z,3.62
2018-11-12T13:24:15.179Z,4.92
2018-11-12T13:28:55.335Z,3.30
2018-11-12T13:33:35.213Z,2.33
2018-11-12T13:38:15.113Z,2.47
2018-11-12T13:42:58.819Z,2.35
2018-11-12T13:47:39.513Z,2.90
2018-11-12T13:52:19.172Z,3.37
2018-11-12T13:56:59.133Z,3.05
2018-11-12T14:01:39.387Z,2.27
2018-11-12T14:06:20.025Z,2.60
2018-11-12T14:11:00.144Z,3.25
2018-11-12T14:15:40.074Z,4.95
2018-11-12T14:20:21.603Z,2.35
2018-11-12T14:25:01.591Z,3.30
2018-11-12T14:29:41.517Z,4.78
2018-11-12T14:34:21.569Z,3.70
2018-11-12T14:39:02.102Z,4.05
2018-11-12T14:43:42.629Z,6.20
2018-11-12T14:48:22.552Z,5.67
2018-11-12T14:53:03.703Z,8.88
2018-11-12T14:57:43.597Z,6.40
2018-11-12T15:02:23.566Z,5.97
2018-11-12T15:07:03.810Z,6.15
2018-11-12T15:11:44.525Z,3.87
2018-11-12T15:16:25.196Z,6.58
2018-11-12T15:21:06.148Z,5.90
2018-11-12T15:25:46.945Z,7.70
2018-11-12T15:30:31.798Z,6.47
2018-11-12T15:35:13.730Z,5.00
2018-11-12T15:39:54.259Z,4.10
2018-11-12T15:44:35.837Z,6.40
2018-11-12T15:49:18.152Z,4.22
2018-11-12T15:54:00.317Z,5.72
2018-11-12T15:58:41.233Z,11.65
2018-11-12T16:03:22.347Z,10.85
2018-11-12T16:08:03.766Z,13.62
2018-11-12T16:12:43.873Z,11.18
2018-11-12T16:17:24.274Z,15.80
2018-11-12T16:22:04.726Z,14.33
2018-11-12T16:26:45.389Z,16.07
2018-11-12T16:31:26.749Z,8.58
2018-11-12T16:36:08.950Z,9.30
2018-11-12T16:40:49.573Z,8.95
2018-11-12T16:45:29.940Z,11.22
2018-11-12T16:50:12.096Z,8.75
2018-11-12T16:54:54.137Z,9.78
2018-11-12T16:59:36.488Z,8.38
2018-11-12T17:04:16.470Z,9.70
2018-11-12T17:08:57.446Z,8.90
2018-11-12T17:13:37.292Z,10.63
2018-11-12T17:18:17.693Z,7.85
2018-11-12T17:22:57.576Z,12.05
2018-11-12T17:27:37.581Z,16.52
2018-11-12T17:32:17.633Z,12.85
2018-11-12T17:36:57.911Z,12.28
2018-11-12T17:41:37.865Z,11.12
2018-11-12T17:46:17.828Z,8.15
2018-11-12T17:50:59.307Z,9.15
2018-11-12T17:55:39.068Z,7.40
2018-11-12T18:00:24.151Z,7.58
2018-11-12T18:05:04.305Z,8.80
2018-11-12T18:09:44.512Z,9.50
2018-11-12T18:14:24.237Z,8.75
2018-11-12T18:19:04.305Z,11.88
2018-11-12T18:23:44.233Z,9.15
2018-11-12T18:28:25.669Z,9.95
2018-11-12T18:33:06.497Z,9.90
2018-11-12T18:37:46.509Z,6.37
2018-11-12T18:42:27.501Z,8.55
2018-11-12T18:47:08.477Z,10.40
2018-11-12T18:51:49.023Z,9.55
2018-11-12T18:56:29.454Z,9.58
2018-11-12T19:01:09.448Z,8.83
2018-11-12T19:05:50.152Z,24.55
2018-11-12T19:10:32.579Z,15.60
2018-11-12T19:15:14.162Z,17.37
2018-11-12T19:19:54.565Z,14.07
2018-11-12T19:24:34.820Z,16.52
2018-11-12T19:29:14.877Z,12.23
2018-11-12T19:33:54.681Z,10.58
2018-11-12T19:38:34.500Z,8.30
2018-11-12T19:43:14.871Z,5.45
2018-11-12T19:47:55.857Z,9.45
2018-11-12T19:52:35.537Z,6.40
2018-11-12T19:57:15.397Z,8.18
2018-11-12T20:01:55.227Z,7.10
2018-11-12T20:13:24.276Z,7.60
2018-11-12T20:18:04.122Z,8.25
2018-11-12T20:22:44.906Z,9.18
2018-11-12T20:27:24.620Z,6.97
2018-11-12T20:32:05.561Z,11.10
2018-11-12T20:36:45.538Z,11.85
2018-11-12T20:41:25.305Z,8.58
2018-11-12T20:46:06.135Z,8.78
2018-11-12T20:50:45.927Z,7.22
2018-11-12T20:55:25.891Z,6.70
2018-11-12T21:00:07.970Z,6.67
2018-11-12T21:04:48.253Z,6.78
2018-11-12T21:09:28.270Z,7.12
2018-11-12T21:14:08.032Z,4.50
2018-11-12T21:18:47.901Z,4.72
2018-11-12T21:23:27.699Z,3.77
2018-11-12T21:28:08.469Z,4.60
2018-11-12T21:32:50.581Z,6.03
2018-11-12T21:37:32.425Z,5.40
2018-11-12T21:42:13.885Z,7.78
2018-11-12T21:46:55.183Z,5.33
2018-11-12T21:51:36.305Z,5.55
2018-11-12T21:56:16.853Z,7.33
2018-11-12T22:00:56.891Z,5.83
2018-11-12T22:05:37.380Z,5.70
2018-11-12T22:10:18.239Z,6.83
2018-11-12T22:14:58.001Z,8.15
2018-11-12T22:19:37.991Z,8.50
2018-11-12T22:24:18.460Z,6.92
2018-11-12T22:28:58.598Z,6.47
2018-11-12T22:33:38.341Z,7.03
2018-11-12T22:38:19.229Z,7.42
2018-11-12T22:42:58.917Z,6.05
2018-11-12T22:47:46.109Z,7.40
2018-11-12T22:52:26.672Z,10.90
2018-11-12T22:57:06.724Z,9.18
2018-11-12T23:01:46.627Z,11.63
2018-11-12T23:06:26.456Z,10.18
2018-11-12T23:11:07.265Z,7.03
2018-11-12T23:15:47.074Z,6.53
2018-11-12T23:20:28.482Z,6.25
2018-11-12T23:25:09.081Z,8.18
2018-11-12T23:29:49.678Z,11.88
2018-11-12T23:34:30.873Z,11.70
2018-11-12T23:39:10.957Z,7.35
2018-11-12T23:43:50.897Z,8.90
2018-11-12T23:48:30.628Z,8.95
2018-11-12T23:53:10.761Z,10.28
2018-11-12T23:57:51.469Z,8.10
